createdAt,value
2023-04-25T00:00:30.293Z,1.48
2023-04-25T00:02:33.638Z,0.98
2023-04-25T00:04:35.984Z,1.17
2023-04-25T00:06:38.092Z,1.02
2023-04-25T00:08:39.910Z,1.25
2023-04-25T00:10:41.763Z,1.00
2023-04-25T00:12:43.415Z,1.13
2023-04-25T00:14:46.417Z,1.02
2023-04-25T00:16:49.269Z,1.35
2023-04-25T00:18:54.677Z,1.23
2023-04-25T00:20:56.612Z,1.20
2023-04-25T00:22:58.272Z,1.10
2023-04-25T00:25:01.157Z,2.45
2023-04-25T00:27:02.776Z,1.20
2023-04-25T00:29:04.581Z,1.23
2023-04-25T00:31:06.264Z,0.90
2023-04-25T00:33:08.593Z,1.48
2023-04-25T00:35:10.804Z,1.20
2023-04-25T00:37:13.623Z,1.33
2023-04-25T00:39:15.300Z,1.98
2023-04-25T00:41:17.097Z,1.00
2023-04-25T00:43:18.737Z,1.35
2023-04-25T00:45:21.303Z,1.48
2023-04-25T00:47:23.626Z,2.17
2023-04-25T00:49:25.460Z,1.05
2023-04-25T00:51:27.797Z,1.13
2023-04-25T00:53:30.920Z,1.40
2023-04-25T00:55:33.409Z,1.52
2023-04-25T00:57:35.742Z,5.88
2023-04-25T00:59:38.686Z,1.20
2023-04-25T01:01:40.634Z,1.55
2023-04-25T01:03:42.606Z,1.10
2023-04-25T01:05:44.800Z,1.25
2023-04-25T01:07:46.597Z,1.23
2023-04-25T01:09:48.395Z,1.50
2023-04-25T01:11:50.638Z,1.55
2023-04-25T01:13:52.846Z,1.38
2023-04-25T01:15:55.056Z,1.90
2023-04-25T01:17:57.781Z,1.10
2023-04-25T01:19:59.671Z,1.10
2023-04-25T01:22:01.545Z,0.80
2023-04-25T01:24:03.823Z,1.15
2023-04-25T01:26:06.549Z,1.40
2023-04-25T01:28:08.713Z,1.42
2023-04-25T01:30:10.864Z,1.17
2023-04-25T01:32:13.013Z,2.03
2023-04-25T01:34:14.824Z,2.13
2023-04-25T01:36:16.711Z,3.42
2023-04-25T01:38:18.476Z,0.85
2023-04-25T01:40:22.118Z,6.05
2023-04-25T01:42:23.820Z,1.38
2023-04-25T01:44:25.479Z,10.07
2023-04-25T01:46:28.048Z,1.73
2023-04-25T01:48:29.756Z,1.42
2023-04-25T01:50:31.550Z,1.00
2023-04-25T01:52:33.315Z,0.90
2023-04-25T01:54:34.987Z,1.23
2023-04-25T01:56:39.009Z,1.00
2023-04-25T01:58:40.708Z,2.85
2023-04-25T02:00:42.506Z,1.20
2023-04-25T02:02:44.267Z,1.20
2023-04-25T02:04:46.143Z,0.95
2023-04-25T02:06:47.890Z,2.85
2023-04-25T02:08:49.594Z,1.50
2023-04-25T02:10:51.370Z,1.08
2023-04-25T02:12:53.054Z,2.30
2023-04-25T02:14:54.804Z,1.10
2023-04-25T02:16:56.519Z,1.20
2023-04-25T02:18:58.194Z,1.05
2023-04-25T02:21:02.020Z,1.23
2023-04-25T02:23:04.313Z,1.50
2023-04-25T02:25:06.502Z,2.20
2023-04-25T02:27:08.689Z,4.20
2023-04-25T02:29:11.334Z,1.25
2023-04-25T02:31:13.002Z,3.20
2023-04-25T02:33:14.720Z,4.70
2023-04-25T02:35:16.631Z,1.10
2023-04-25T02:37:18.250Z,2.03
2023-04-25T02:39:19.879Z,3.13
2023-04-25T02:41:21.782Z,0.95
2023-04-25T02:43:23.532Z,4.18
2023-04-25T02:45:25.295Z,3.10
2023-04-25T02:47:27.235Z,1.67
2023-04-25T02:49:28.911Z,3.53
2023-04-25T02:51:31.173Z,0.98
2023-04-25T02:53:32.872Z,1.50
2023-04-25T02:55:34.496Z,1.00
2023-04-25T02:57:36.114Z,1.08
2023-04-25T02:59:37.796Z,2.28
2023-04-25T03:01:39.512Z,1.17
2023-04-25T03:03:41.282Z,1.15
2023-04-25T03:05:43.198Z,1.08
2023-04-25T03:07:45.604Z,1.08
2023-04-25T03:09:47.215Z,1.98
2023-04-25T03:11:48.866Z,0.73
2023-04-25T03:13:50.737Z,3.33
2023-04-25T03:15:52.561Z,3.67
2023-04-25T03:17:54.200Z,4.55
2023-04-25T03:19:56.249Z,2.13
2023-04-25T03:21:57.937Z,2.97
2023-04-25T03:24:00.261Z,2.10
2023-04-25T03:26:02.050Z,1.20
2023-04-25T03:28:03.696Z,12.13
2023-04-25T03:30:06.145Z,11.48
2023-04-25T03:32:07.941Z,9.80
2023-04-25T03:34:09.591Z,9.15
2023-04-25T03:36:11.249Z,6.43
2023-04-25T03:38:12.932Z,5.47
2023-04-25T03:40:14.659Z,6.53
2023-04-25T03:42:16.347Z,3.15
2023-04-25T03:44:17.998Z,9.40
2023-04-25T03:46:19.732Z,2.60
2023-04-25T03:48:26.852Z,2.90
2023-04-25T03:50:28.651Z,4.40
2023-04-25T03:52:30.317Z,8.45
2023-04-25T03:54:31.981Z,6.15
2023-04-25T03:56:33.872Z,1.45
2023-04-25T03:58:35.673Z,5.60
2023-04-25T04:00:37.613Z,5.75
2023-04-25T04:02:40.533Z,6.00
2023-04-25T04:04:45.096Z,2.13
2023-04-25T04:06:47.188Z,2.92
2023-04-25T04:08:48.890Z,4.57
2023-04-25T04:10:50.627Z,5.18
2023-04-25T04:12:52.315Z,2.90
2023-04-25T04:14:53.961Z,2.42
2023-04-25T04:16:55.571Z,4.70
2023-04-25T04:18:57.399Z,7.13
2023-04-25T04:20:59.230Z,5.00
2023-04-25T04:23:02.201Z,6.63
2023-04-25T04:25:04.121Z,2.63
2023-04-25T04:27:06.786Z,4.78
2023-04-25T04:29:09.604Z,2.88
2023-04-25T04:31:11.985Z,4.60
2023-04-25T04:33:14.592Z,2.03
2023-04-25T04:35:16.340Z,2.25
2023-04-25T04:37:18.515Z,7.25
2023-04-25T04:39:20.155Z,5.03
2023-04-25T04:41:21.908Z,11.23
2023-04-25T04:43:24.005Z,16.42
2023-04-25T04:45:26.197Z,14.25
2023-04-25T04:47:32.170Z,20.95
2023-04-25T04:49:34.454Z,13.40
2023-04-25T04:51:36.516Z,12.73
2023-04-25T04:53:38.270Z,14.00
2023-04-25T04:55:42.021Z,18.13
2023-04-25T04:57:43.686Z,17.27
2023-04-25T04:59:45.465Z,15.52
2023-04-25T05:01:47.790Z,18.55
2023-04-25T05:03:49.974Z,22.35
2023-04-25T05:05:52.359Z,17.10
2023-04-25T05:07:53.978Z,15.55
2023-04-25T05:09:55.641Z,9.48
2023-04-25T05:11:57.272Z,10.75
2023-04-25T05:13:58.914Z,25.98
2023-04-25T05:16:00.728Z,24.65
2023-04-25T05:18:02.982Z,11.68
2023-04-25T05:20:06.709Z,28.52
2023-04-25T05:22:09.503Z,19.40
2023-04-25T05:24:11.147Z,14.43
2023-04-25T05:26:14.913Z,11.82
2023-04-25T05:28:16.800Z,13.40
2023-04-25T05:30:18.404Z,10.93
2023-04-25T05:32:20.299Z,14.60
2023-04-25T05:34:22.099Z,7.95
2023-04-25T05:36:23.890Z,13.30
2023-04-25T05:38:25.821Z,13.63
2023-04-25T05:40:27.663Z,14.10
2023-04-25T05:42:29.339Z,11.73
2023-04-25T05:44:31.837Z,6.72
2023-04-25T05:46:33.512Z,7.50
2023-04-25T05:48:35.254Z,18.92
2023-04-25T05:50:36.951Z,16.20
2023-04-25T05:52:39.283Z,10.18
2023-04-25T05:54:40.968Z,14.30
2023-04-25T05:56:42.609Z,10.23
2023-04-25T05:58:45.167Z,8.60
2023-04-25T06:00:47.162Z,13.82
2023-04-25T06:02:48.939Z,8.80
2023-04-25T06:04:52.296Z,15.88
2023-04-25T06:06:54.100Z,6.18
2023-04-25T06:08:56.478Z,10.20
2023-04-25T06:10:58.481Z,7.53
2023-04-25T06:13:00.388Z,8.32
2023-04-25T06:15:02.678Z,7.18
2023-04-25T06:17:09.325Z,10.55
2023-04-25T06:19:10.979Z,4.85
2023-04-25T06:21:12.622Z,10.73
2023-04-25T06:23:14.250Z,8.38
2023-04-25T06:25:16.315Z,5.57
2023-04-25T06:27:17.971Z,5.75
2023-04-25T06:29:19.679Z,7.65
2023-04-25T06:31:21.377Z,3.28
2023-04-25T06:33:23.238Z,9.85
2023-04-25T06:35:24.985Z,7.28
2023-04-25T06:37:26.806Z,5.55
2023-04-25T06:39:28.434Z,4.35
2023-04-25T06:41:30.186Z,7.03
2023-04-25T06:43:34.288Z,6.78
2023-04-25T06:45:35.963Z,5.85
2023-04-25T06:47:37.676Z,1.95
2023-04-25T06:49:39.380Z,8.10
2023-04-25T06:51:42.065Z,3.95
2023-04-25T06:53:43.650Z,9.52
2023-04-25T06:55:45.445Z,4.75
2023-04-25T06:57:47.080Z,8.25
2023-04-25T06:59:48.728Z,4.78
2023-04-25T07:01:50.477Z,4.43
2023-04-25T07:03:52.398Z,2.85
2023-04-25T07:05:54.145Z,4.68
2023-04-25T07:07:55.904Z,4.00
2023-04-25T07:09:57.792Z,5.53
2023-04-25T07:12:00.215Z,1.98
2023-04-25T07:14:01.819Z,6.47
2023-04-25T07:16:04.121Z,2.20
2023-04-25T07:18:06.053Z,4.18
2023-04-25T07:20:09.979Z,5.40
2023-04-25T07:22:11.589Z,2.40
2023-04-25T07:24:13.270Z,3.00
2023-04-25T07:26:14.918Z,1.92
2023-04-25T07:28:18.133Z,2.97
2023-04-25T07:30:21.130Z,3.75
2023-04-25T07:32:22.787Z,3.95
2023-04-25T07:34:24.460Z,6.10
2023-04-25T07:36:27.496Z,2.78
2023-04-25T07:38:29.200Z,2.30
2023-04-25T07:40:31.149Z,3.42
2023-04-25T07:42:33.576Z,5.32
2023-04-25T07:44:42.039Z,2.30
2023-04-25T07:46:43.660Z,3.30
2023-04-25T07:48:45.374Z,2.35
2023-04-25T07:50:47.333Z,1.48
2023-04-25T07:52:48.962Z,3.70
2023-04-25T07:54:50.920Z,1.42
2023-04-25T07:56:53.769Z,1.67
2023-04-25T07:58:55.596Z,1.60
2023-04-25T08:00:57.308Z,4.45
2023-04-25T08:02:59.011Z,1.90
2023-04-25T08:05:01.127Z,1.67
2023-04-25T08:07:03.075Z,2.40
2023-04-25T08:09:05.068Z,3.85
2023-04-25T08:11:06.802Z,2.17
2023-04-25T08:13:08.464Z,3.65
2023-04-25T08:15:10.753Z,2.95
2023-04-25T08:17:12.578Z,3.95
2023-04-25T08:19:14.261Z,1.90
2023-04-25T08:21:16.488Z,2.30
2023-04-25T08:23:18.216Z,1.23
2023-04-25T08:25:19.951Z,1.65
2023-04-25T08:27:21.956Z,1.75
2023-04-25T08:29:25.720Z,2.00
2023-04-25T08:31:27.378Z,2.10
2023-04-25T08:33:29.246Z,4.38
2023-04-25T08:35:31.057Z,2.35
2023-04-25T08:37:32.696Z,3.90
2023-04-25T08:39:34.317Z,2.40
2023-04-25T08:41:38.305Z,1.38
2023-04-25T08:43:44.206Z,0.90
2023-04-25T08:45:46.888Z,1.00
2023-04-25T08:47:51.623Z,2.67
2023-04-25T08:49:55.440Z,2.83
2023-04-25T08:52:01.352Z,1.30
2023-04-25T08:54:35.264Z,1.75
2023-04-25T08:56:39.726Z,1.02
2023-04-25T08:58:41.667Z,0.93
2023-04-25T09:00:43.411Z,0.98
2023-04-25T09:02:45.497Z,2.75
2023-04-25T09:04:47.624Z,1.20
2023-04-25T09:06:49.445Z,1.65
2023-04-25T09:08:51.471Z,1.67
2023-04-25T09:10:53.166Z,4.75
2023-04-25T09:13:09.607Z,1.80
2023-04-25T09:15:19.676Z,1.30
2023-04-25T09:17:21.967Z,1.25
2023-04-25T09:19:39.570Z,0.95
2023-04-25T09:21:42.893Z,1.30
2023-04-25T09:23:49.722Z,2.25
2023-04-25T09:25:54.716Z,4.60
2023-04-25T09:27:57.051Z,1.77
2023-04-25T09:30:02.673Z,2.38
2023-04-25T09:32:21.792Z,2.95
2023-04-25T09:34:26.995Z,1.80
2023-04-25T09:36:29.221Z,3.92
2023-04-25T09:38:32.666Z,3.40
2023-04-25T09:40:34.333Z,2.33
2023-04-25T09:42:36.449Z,2.65
2023-04-25T09:44:42.466Z,3.22
2023-04-25T09:46:44.221Z,8.63
2023-04-25T09:48:54.602Z,7.95
2023-04-25T09:51:09.342Z,16.52
2023-04-25T09:53:11.646Z,7.88
2023-04-25T09:55:13.354Z,3.25
2023-04-25T09:57:20.230Z,8.10
2023-04-25T09:59:25.805Z,3.63
2023-04-25T10:01:28.481Z,3.42
2023-04-25T10:03:38.259Z,6.43
2023-04-25T10:05:41.668Z,9.60
2023-04-25T10:07:43.545Z,6.80
2023-04-25T10:09:48.197Z,8.63
2023-04-25T10:11:50.556Z,8.57
2023-04-25T10:13:53.594Z,8.68
2023-04-25T10:15:55.910Z,10.95
2023-04-25T10:17:58.839Z,15.82
2023-04-25T10:20:08.880Z,12.40
2023-04-25T10:22:24.236Z,20.98
2023-04-25T10:24:26.833Z,16.02
2023-04-25T10:26:30.802Z,18.88
2023-04-25T10:28:56.439Z,23.23
